Startpagina
METAR-TAF:

METAR-TAF

Vliegvelden :

Rabat, Marokko

Luchthaven Rabat-Sale

breedte: 34-03N, lengte: 006-46W, hoogte: 84 m

Actueel weer

Dit bericht is 16 minuten geleden gemaakt, om 12:00 UTC
Wind 12 kt uit het noordoosten
Temperatuur 39°C
Vochtigheid 16%
Druk 1012 hPa
Zicht 10 km of meer
geen wolken onder 1500 m en geen cumulonimbus

METAR: GMME 241200Z 05012KT CAVOK 39/09 Q1012 NOSIG

Tijdstip: 12:16 (12:16 UTC)

Verwachting

Dit bericht is 19 uur en het 16 minuten geleden gemaakt, om 17:00 UTC
Verwachting geldig van 23 om 18 UTC tot 24 om 24 UTC
Wind 10 kt uit het oosten
Zicht: 6000 m
Tijdelijke
van 24 om 02 UTC tot 24 om 06 UTC
Wind 8 kt uit het zuidoosten
Verspreide wolken op 1500 ft

TAF: GMME 231700Z 2318/2424 08010KT 6000 NSC TEMPO 2402/2406 14008KT SCT015

Waarnemingen en weersverwachtingen van meer dan 4000 vliegvelden (METAR en TAF).

De beschikbare stations zijn de gele en rode punten op de kaart.

Ga met uw muis naar het station om de naam te zien.

Klik dan om waarnemingen en weersverwachtingen te zien.

kaart wijzigen: klik op de groene knoppen met een zwart kruis om in te zoomen, op de groene knop met een streepje om uit te zoomen of op de groene pijlen voor aangrenzende kaarten.


METAR-TAF: